Larnaca, Cyprus

3:38 PM EET on February 10, 2016 (GMT +0200)
Bookshop YDROGEIOS | | Change Station
CLOSE
Current Station
Personal Weather Station
Location: Ορόκλινη, LARNAKA
Elevation: 7 ft
Nearby Weather Stations

Elev 7 ft 34.96 °N, 33.65 °E | Updated 13 minutes ago

Partly Cloudy
Partly Cloudy
60.4 °F
Feels Like 60.4 °F
N
2.7
Wind Variable Wind from West

Today
High -- | Low -- °F
--% Chance of Precip.
Yesterday
High -- | Low -- °F
Precip. -- in
Pressure 30.09 in
Visibility 6.2 miles
Clouds Few 2500 ft
Few 3500 ft
Dew Point 41 °F
Humidity 49%
Rainfall 0.00 in
Snow Depth Not available.
6:37 AM 5:22 PM
Waxing Crescent, 5% visible
METAR LCLK 101330Z 04006KT 9999 FEW025 FEW035TCU 16/05 Q1019 NOSIG
Pressure 30.09 in
Visibility 6.2 miles
Clouds Few 2500 ft
Few 3500 ft
Dew Point 41 °F
Humidity 49%
Rainfall 0.00 in
Snow Depth Not available.
6:37 AM 5:22 PM
Waxing Crescent, 5% visible
METAR LCLK 101330Z 04006KT 9999 FEW025 FEW035TCU 16/05 Q1019 NOSIG

10-Day Weather Forecast

Almanac

Astronomy

Feb. 10, 2016 Rise Set
Actual Time
Civil Twilight
Nautical Twilight
Astronomical Twilight
Moon
Length of Visible Light
Length of Day
Tomorrow will be .
, % of the Moon is Illuminated

Today's Extremes

Country Highs Country Lows

Community

WunderPhotos

Upload Photos

1,891,840 photos uploaded!

WunderBlog® & News

Nearby

Air Quality

  Air Quality AQ Index Pollutant
Not available.

Snow Depth

Station Depth Elevation

Earthquake Activity

City Distance Mag. Time & Date
Minimum magnitude displayed is 2.5.

Coastal Water Temperatures

Place Temperature

Stations

Nearby Weather Stations

Station Location Temp. Windchill Dew Point Humidity Wind Precip. Elev Updated Type